sensor_id;sensor_type;location;lat;lon;timestamp;P1;durP1;ratioP1;P2;durP2;ratioP2
21162;SDS011;10739;52.198;20.908;2022-08-21T00:02:25;7.03;;;4.50;;
21162;SDS011;10739;52.198;20.908;2022-08-21T00:04:53;5.05;;;4.50;;
21162;SDS011;10739;52.198;20.908;2022-08-21T00:07:20;8.70;;;4.70;;
21162;SDS011;10739;52.198;20.908;2022-08-21T00:09:47;6.53;;;4.63;;
21162;SDS011;10739;52.198;20.908;2022-08-21T00:12:13;12.15;;;4.70;;
21162;SDS011;10739;52.198;20.908;2022-08-21T00:14:39;9.15;;;4.57;;
21162;SDS011;10739;52.198;20.908;2022-08-21T00:17:06;7.50;;;4.72;;
21162;SDS011;10739;52.198;20.908;2022-08-21T00:19:33;9.60;;;4.28;;
21162;SDS011;10739;52.198;20.908;2022-08-21T00:21:59;8.93;;;4.63;;
21162;SDS011;10739;52.198;20.908;2022-08-21T00:24:25;6.85;;;4.45;;
21162;SDS011;10739;52.198;20.908;2022-08-21T00:26:52;5.38;;;4.18;;
21162;SDS011;10739;52.198;20.908;2022-08-21T00:29:19;9.65;;;4.13;;
21162;SDS011;10739;52.198;20.908;2022-08-21T00:31:45;7.95;;;4.15;;
21162;SDS011;10739;52.198;20.908;2022-08-21T00:34:12;7.78;;;4.78;;
21162;SDS011;10739;52.198;20.908;2022-08-21T00:36:39;6.65;;;4.82;;
21162;SDS011;10739;52.198;20.908;2022-08-21T00:39:06;8.40;;;4.43;;
21162;SDS011;10739;52.198;20.908;2022-08-21T00:41:34;9.75;;;4.97;;
21162;SDS011;10739;52.198;20.908;2022-08-21T00:44:21;7.93;;;4.28;;
21162;SDS011;10739;52.198;20.908;2022-08-21T00:46:47;5.97;;;4.25;;
21162;SDS011;10739;52.198;20.908;2022-08-21T00:49:13;8.15;;;4.70;;
21162;SDS011;10739;52.198;20.908;2022-08-21T00:54:17;6.00;;;4.70;;
21162;SDS011;10739;52.198;20.908;2022-08-21T00:56:48;6.63;;;4.30;;
21162;SDS011;10739;52.198;20.908;2022-08-21T00:59:20;10.05;;;4.65;;
21162;SDS011;10739;52.198;20.908;2022-08-21T01:01:48;9.07;;;4.90;;
21162;SDS011;10739;52.198;20.908;2022-08-21T01:04:19;4.90;;;4.45;;
21162;SDS011;10739;52.198;20.908;2022-08-21T01:06:46;11.65;;;4.38;;
21162;SDS011;10739;52.198;20.908;2022-08-21T01:09:12;11.52;;;4.50;;
21162;SDS011;10739;52.198;20.908;2022-08-21T01:11:40;8.50;;;4.78;;
21162;SDS011;10739;52.198;20.908;2022-08-21T01:14:10;10.48;;;5.32;;
21162;SDS011;10739;52.198;20.908;2022-08-21T01:16:39;15.95;;;5.55;;
21162;SDS011;10739;52.198;20.908;2022-08-21T01:19:10;5.00;;;4.47;;
21162;SDS011;10739;52.198;20.908;2022-08-21T01:21:40;6.93;;;4.68;;
21162;SDS011;10739;52.198;20.908;2022-08-21T01:24:07;7.90;;;4.72;;
21162;SDS011;10739;52.198;20.908;2022-08-21T01:26:35;6.43;;;4.90;;
21162;SDS011;10739;52.198;20.908;2022-08-21T01:29:07;6.75;;;4.80;;
21162;SDS011;10739;52.198;20.908;2022-08-21T01:31:48;7.40;;;4.97;;
21162;SDS011;10739;52.198;20.908;2022-08-21T01:34:15;7.65;;;4.72;;
21162;SDS011;10739;52.198;20.908;2022-08-21T01:36:42;8.35;;;4.90;;
21162;SDS011;10739;52.198;20.908;2022-08-21T01:39:10;5.20;;;4.68;;
21162;SDS011;10739;52.198;20.908;2022-08-21T01:41:37;8.40;;;4.72;;
21162;SDS011;10739;52.198;20.908;2022-08-21T01:44:03;10.15;;;5.18;;
21162;SDS011;10739;52.198;20.908;2022-08-21T01:46:30;6.40;;;4.82;;
21162;SDS011;10739;52.198;20.908;2022-08-21T01:48:56;9.02;;;5.07;;
21162;SDS011;10739;52.198;20.908;2022-08-21T01:51:23;7.90;;;4.50;;
21162;SDS011;10739;52.198;20.908;2022-08-21T01:53:49;6.75;;;5.00;;
21162;SDS011;10739;52.198;20.908;2022-08-21T01:56:16;8.80;;;4.90;;
21162;SDS011;10739;52.198;20.908;2022-08-21T01:58:44;9.30;;;4.90;;
21162;SDS011;10739;52.198;20.908;2022-08-21T02:01:13;7.25;;;4.70;;
21162;SDS011;10739;52.198;20.908;2022-08-21T02:03:40;4.90;;;4.32;;
21162;SDS011;10739;52.198;20.908;2022-08-21T02:06:07;10.80;;;4.80;;
21162;SDS011;10739;52.198;20.908;2022-08-21T02:08:38;8.35;;;4.93;;
21162;SDS011;10739;52.198;20.908;2022-08-21T02:11:05;8.35;;;5.03;;
21162;SDS011;10739;52.198;20.908;2022-08-21T02:13:32;7.07;;;5.43;;
21162;SDS011;10739;52.198;20.908;2022-08-21T02:15:57;6.78;;;4.32;;
21162;SDS011;10739;52.198;20.908;2022-08-21T02:18:24;9.50;;;4.72;;
21162;SDS011;10739;52.198;20.908;2022-08-21T02:20:50;8.40;;;4.85;;
21162;SDS011;10739;52.198;20.908;2022-08-21T02:23:16;7.75;;;4.50;;
21162;SDS011;10739;52.198;20.908;2022-08-21T02:25:42;7.60;;;4.43;;
21162;SDS011;10739;52.198;20.908;2022-08-21T02:28:10;11.00;;;4.70;;
21162;SDS011;10739;52.198;20.908;2022-08-21T02:30:41;5.90;;;4.47;;
21162;SDS011;10739;52.198;20.908;2022-08-21T02:33:11;7.32;;;4.28;;
21162;SDS011;10739;52.198;20.908;2022-08-21T02:35:38;5.35;;;4.50;;
21162;SDS011;10739;52.198;20.908;2022-08-21T02:38:08;6.40;;;4.97;;
21162;SDS011;10739;52.198;20.908;2022-08-21T02:40:40;7.50;;;4.60;;
21162;SDS011;10739;52.198;20.908;2022-08-21T02:43:11;5.20;;;4.43;;
21162;SDS011;10739;52.198;20.908;2022-08-21T02:45:38;5.65;;;4.45;;
21162;SDS011;10739;52.198;20.908;2022-08-21T02:48:06;8.25;;;4.30;;
21162;SDS011;10739;52.198;20.908;2022-08-21T02:50:37;7.40;;;4.65;;
21162;SDS011;10739;52.198;20.908;2022-08-21T02:53:07;7.82;;;4.43;;
21162;SDS011;10739;52.198;20.908;2022-08-21T02:55:36;5.20;;;4.20;;
21162;SDS011;10739;52.198;20.908;2022-08-21T02:58:04;10.05;;;4.60;;
21162;SDS011;10739;52.198;20.908;2022-08-21T03:00:33;8.43;;;5.13;;
21162;SDS011;10739;52.198;20.908;2022-08-21T03:03:01;7.28;;;4.63;;
21162;SDS011;10739;52.198;20.908;2022-08-21T03:05:29;8.02;;;4.38;;
21162;SDS011;10739;52.198;20.908;2022-08-21T03:07:59;4.85;;;4.15;;
21162;SDS011;10739;52.198;20.908;2022-08-21T03:10:28;9.68;;;5.15;;
21162;SDS011;10739;52.198;20.908;2022-08-21T03:12:56;6.57;;;4.30;;
21162;SDS011;10739;52.198;20.908;2022-08-21T03:15:22;7.25;;;4.50;;
21162;SDS011;10739;52.198;20.908;2022-08-21T03:17:50;7.95;;;4.35;;
21162;SDS011;10739;52.198;20.908;2022-08-21T03:20:17;6.07;;;4.50;;
21162;SDS011;10739;52.198;20.908;2022-08-21T03:22:47;10.20;;;4.68;;
21162;SDS011;10739;52.198;20.908;2022-08-21T03:25:13;8.95;;;4.55;;
21162;SDS011;10739;52.198;20.908;2022-08-21T03:27:39;5.13;;;4.63;;
21162;SDS011;10739;52.198;20.908;2022-08-21T03:30:06;6.63;;;4.40;;
21162;SDS011;10739;52.198;20.908;2022-08-21T03:32:34;6.45;;;4.63;;
21162;SDS011;10739;52.198;20.908;2022-08-21T03:35:02;6.88;;;4.50;;
21162;SDS011;10739;52.198;20.908;2022-08-21T03:37:30;11.80;;;5.13;;
21162;SDS011;10739;52.198;20.908;2022-08-21T03:39:57;11.75;;;4.35;;
21162;SDS011;10739;52.198;20.908;2022-08-21T03:42:23;9.10;;;4.85;;
21162;SDS011;10739;52.198;20.908;2022-08-21T03:44:50;12.95;;;5.22;;
21162;SDS011;10739;52.198;20.908;2022-08-21T03:47:16;6.22;;;4.60;;
21162;SDS011;10739;52.198;20.908;2022-08-21T03:49:43;7.53;;;4.82;;
21162;SDS011;10739;52.198;20.908;2022-08-21T03:52:09;8.18;;;4.60;;
21162;SDS011;10739;52.198;20.908;2022-08-21T03:54:35;6.53;;;4.85;;
21162;SDS011;10739;52.198;20.908;2022-08-21T03:57:01;7.85;;;4.70;;
21162;SDS011;10739;52.198;20.908;2022-08-21T03:59:28;7.43;;;4.95;;
21162;SDS011;10739;52.198;20.908;2022-08-21T04:01:58;5.78;;;4.82;;
21162;SDS011;10739;52.198;20.908;2022-08-21T04:04:26;7.32;;;4.82;;
21162;SDS011;10739;52.198;20.908;2022-08-21T04:06:57;5.63;;;4.78;;
21162;SDS011;10739;52.198;20.908;2022-08-21T04:09:24;10.13;;;4.70;;
21162;SDS011;10739;52.198;20.908;2022-08-21T04:11:52;8.27;;;4.63;;
21162;SDS011;10739;52.198;20.908;2022-08-21T04:14:19;6.65;;;4.75;;
21162;SDS011;10739;52.198;20.908;2022-08-21T04:16:45;8.00;;;4.70;;
21162;SDS011;10739;52.198;20.908;2022-08-21T04:19:11;5.68;;;4.60;;
21162;SDS011;10739;52.198;20.908;2022-08-21T04:21:38;6.15;;;4.68;;
21162;SDS011;10739;52.198;20.908;2022-08-21T04:24:06;6.68;;;4.80;;
21162;SDS011;10739;52.198;20.908;2022-08-21T04:26:35;8.15;;;4.88;;
21162;SDS011;10739;52.198;20.908;2022-08-21T04:29:04;5.40;;;4.72;;
21162;SDS011;10739;52.198;20.908;2022-08-21T04:31:34;5.82;;;4.75;;
21162;SDS011;10739;52.198;20.908;2022-08-21T04:34:03;8.48;;;5.07;;
21162;SDS011;10739;52.198;20.908;2022-08-21T04:36:31;7.80;;;5.07;;
21162;SDS011;10739;52.198;20.908;2022-08-21T04:38:58;10.52;;;5.05;;
21162;SDS011;10739;52.198;20.908;2022-08-21T04:41:25;5.35;;;4.65;;
21162;SDS011;10739;52.198;20.908;2022-08-21T04:43:51;7.78;;;5.45;;
21162;SDS011;10739;52.198;20.908;2022-08-21T04:46:17;7.43;;;5.18;;
21162;SDS011;10739;52.198;20.908;2022-08-21T04:48:44;8.48;;;5.32;;
21162;SDS011;10739;52.198;20.908;2022-08-21T04:51:17;6.90;;;5.03;;
21162;SDS011;10739;52.198;20.908;2022-08-21T04:54:19;7.80;;;5.28;;
21162;SDS011;10739;52.198;20.908;2022-08-21T04:56:58;7.28;;;5.03;;
21162;SDS011;10739;52.198;20.908;2022-08-21T04:59:35;7.28;;;4.90;;
21162;SDS011;10739;52.198;20.908;2022-08-21T05:02:11;6.97;;;5.28;;
21162;SDS011;10739;52.198;20.908;2022-08-21T05:04:41;10.35;;;5.35;;
21162;SDS011;10739;52.198;20.908;2022-08-21T05:07:22;8.38;;;4.70;;
21162;SDS011;10739;52.198;20.908;2022-08-21T05:09:53;5.93;;;4.70;;
21162;SDS011;10739;52.198;20.908;2022-08-21T05:12:19;11.15;;;5.03;;
21162;SDS011;10739;52.198;20.908;2022-08-21T05:14:47;9.18;;;4.95;;
21162;SDS011;10739;52.198;20.908;2022-08-21T05:17:13;5.47;;;4.55;;
21162;SDS011;10739;52.198;20.908;2022-08-21T05:19:40;7.00;;;4.85;;
21162;SDS011;10739;52.198;20.908;2022-08-21T05:22:06;6.60;;;4.43;;
21162;SDS011;10739;52.198;20.908;2022-08-21T05:24:32;10.95;;;4.60;;
21162;SDS011;10739;52.198;20.908;2022-08-21T05:26:58;5.15;;;4.68;;
21162;SDS011;10739;52.198;20.908;2022-08-21T05:29:25;6.72;;;4.28;;
21162;SDS011;10739;52.198;20.908;2022-08-21T05:31:51;6.38;;;4.22;;
21162;SDS011;10739;52.198;20.908;2022-08-21T05:34:19;6.85;;;4.68;;
21162;SDS011;10739;52.198;20.908;2022-08-21T05:36:47;9.02;;;4.75;;
21162;SDS011;10739;52.198;20.908;2022-08-21T05:39:14;11.02;;;4.88;;
21162;SDS011;10739;52.198;20.908;2022-08-21T05:41:41;7.85;;;4.97;;
21162;SDS011;10739;52.198;20.908;2022-08-21T05:44:07;10.23;;;4.65;;
21162;SDS011;10739;52.198;20.908;2022-08-21T05:46:33;6.78;;;4.93;;
21162;SDS011;10739;52.198;20.908;2022-08-21T05:48:59;6.20;;;4.63;;
21162;SDS011;10739;52.198;20.908;2022-08-21T05:51:25;5.90;;;4.65;;
21162;SDS011;10739;52.198;20.908;2022-08-21T05:53:51;6.55;;;5.18;;
21162;SDS011;10739;52.198;20.908;2022-08-21T05:56:17;8.23;;;4.75;;
21162;SDS011;10739;52.198;20.908;2022-08-21T05:58:43;7.22;;;5.25;;
21162;SDS011;10739;52.198;20.908;2022-08-21T06:01:10;12.23;;;4.65;;
21162;SDS011;10739;52.198;20.908;2022-08-21T06:03:37;11.75;;;5.13;;
21162;SDS011;10739;52.198;20.908;2022-08-21T06:06:06;7.20;;;5.28;;
21162;SDS011;10739;52.198;20.908;2022-08-21T06:08:32;9.80;;;5.40;;
21162;SDS011;10739;52.198;20.908;2022-08-21T06:10:59;6.88;;;4.70;;
21162;SDS011;10739;52.198;20.908;2022-08-21T06:13:27;6.50;;;5.25;;
21162;SDS011;10739;52.198;20.908;2022-08-21T06:16:04;7.78;;;5.30;;
21162;SDS011;10739;52.198;20.908;2022-08-21T06:18:38;8.07;;;5.13;;
21162;SDS011;10739;52.198;20.908;2022-08-21T06:21:06;6.22;;;4.75;;
21162;SDS011;10739;52.198;20.908;2022-08-21T06:23:33;7.72;;;4.65;;
21162;SDS011;10739;52.198;20.908;2022-08-21T06:26:03;8.20;;;4.55;;
21162;SDS011;10739;52.198;20.908;2022-08-21T06:28:32;8.90;;;4.80;;
21162;SDS011;10739;52.198;20.908;2022-08-21T06:31:00;8.57;;;4.72;;
21162;SDS011;10739;52.198;20.908;2022-08-21T06:33:26;8.85;;;5.20;;
21162;SDS011;10739;52.198;20.908;2022-08-21T06:35:53;12.32;;;6.07;;
21162;SDS011;10739;52.198;20.908;2022-08-21T06:38:19;8.68;;;5.10;;
21162;SDS011;10739;52.198;20.908;2022-08-21T06:40:45;8.82;;;4.80;;
21162;SDS011;10739;52.198;20.908;2022-08-21T06:43:12;8.77;;;4.53;;
21162;SDS011;10739;52.198;20.908;2022-08-21T06:45:41;8.73;;;5.03;;
21162;SDS011;10739;52.198;20.908;2022-08-21T06:48:08;5.30;;;4.60;;
21162;SDS011;10739;52.198;20.908;2022-08-21T06:50:35;5.35;;;4.55;;
21162;SDS011;10739;52.198;20.908;2022-08-21T06:53:06;6.65;;;4.72;;
21162;SDS011;10739;52.198;20.908;2022-08-21T06:55:38;12.15;;;4.78;;
21162;SDS011;10739;52.198;20.908;2022-08-21T06:58:05;5.35;;;4.82;;
21162;SDS011;10739;52.198;20.908;2022-08-21T07:00:32;7.18;;;4.68;;
21162;SDS011;10739;52.198;20.908;2022-08-21T07:02:59;10.48;;;5.32;;
21162;SDS011;10739;52.198;20.908;2022-08-21T07:05:26;7.57;;;4.80;;
21162;SDS011;10739;52.198;20.908;2022-08-21T07:07:55;7.35;;;4.68;;
21162;SDS011;10739;52.198;20.908;2022-08-21T07:10:23;8.13;;;5.10;;
21162;SDS011;10739;52.198;20.908;2022-08-21T07:12:51;8.85;;;5.10;;
21162;SDS011;10739;52.198;20.908;2022-08-21T07:15:20;6.05;;;4.78;;
21162;SDS011;10739;52.198;20.908;2022-08-21T07:17:46;9.57;;;5.18;;
21162;SDS011;10739;52.198;20.908;2022-08-21T07:20:12;6.65;;;4.97;;
21162;SDS011;10739;52.198;20.908;2022-08-21T07:22:38;9.15;;;4.47;;
21162;SDS011;10739;52.198;20.908;2022-08-21T07:25:09;7.20;;;4.50;;
21162;SDS011;10739;52.198;20.908;2022-08-21T07:27:35;7.72;;;4.47;;
21162;SDS011;10739;52.198;20.908;2022-08-21T07:30:02;5.35;;;4.75;;
21162;SDS011;10739;52.198;20.908;2022-08-21T07:32:30;8.20;;;4.57;;
21162;SDS011;10739;52.198;20.908;2022-08-21T07:34:56;7.55;;;5.03;;
21162;SDS011;10739;52.198;20.908;2022-08-21T07:37:23;8.10;;;4.40;;
21162;SDS011;10739;52.198;20.908;2022-08-21T07:39:49;5.93;;;3.90;;
21162;SDS011;10739;52.198;20.908;2022-08-21T07:42:16;7.32;;;4.43;;
21162;SDS011;10739;52.198;20.908;2022-08-21T07:44:42;6.32;;;4.53;;
21162;SDS011;10739;52.198;20.908;2022-08-21T07:47:09;8.85;;;3.88;;
21162;SDS011;10739;52.198;20.908;2022-08-21T07:49:35;7.70;;;4.93;;
21162;SDS011;10739;52.198;20.908;2022-08-21T07:52:01;7.70;;;4.57;;
21162;SDS011;10739;52.198;20.908;2022-08-21T07:54:27;5.00;;;4.50;;
21162;SDS011;10739;52.198;20.908;2022-08-21T07:56:54;7.22;;;4.20;;
21162;SDS011;10739;52.198;20.908;2022-08-21T07:59:20;7.95;;;4.68;;
21162;SDS011;10739;52.198;20.908;2022-08-21T08:01:46;7.50;;;4.60;;
21162;SDS011;10739;52.198;20.908;2022-08-21T08:04:12;6.10;;;4.50;;
21162;SDS011;10739;52.198;20.908;2022-08-21T08:06:41;8.20;;;4.50;;
21162;SDS011;10739;52.198;20.908;2022-08-21T08:09:07;9.82;;;5.00;;
21162;SDS011;10739;52.198;20.908;2022-08-21T08:11:33;9.77;;;4.38;;
21162;SDS011;10739;52.198;20.908;2022-08-21T08:14:08;4.80;;;3.92;;
21162;SDS011;10739;52.198;20.908;2022-08-21T08:16:35;8.73;;;4.55;;
21162;SDS011;10739;52.198;20.908;2022-08-21T08:19:01;8.15;;;4.82;;
21162;SDS011;10739;52.198;20.908;2022-08-21T08:21:28;5.70;;;4.60;;
21162;SDS011;10739;52.198;20.908;2022-08-21T08:23:55;8.13;;;4.18;;
21162;SDS011;10739;52.198;20.908;2022-08-21T08:26:21;12.02;;;4.72;;
21162;SDS011;10739;52.198;20.908;2022-08-21T08:28:47;8.32;;;4.90;;
21162;SDS011;10739;52.198;20.908;2022-08-21T08:31:14;8.07;;;4.13;;
21162;SDS011;10739;52.198;20.908;2022-08-21T08:33:40;6.22;;;4.32;;
21162;SDS011;10739;52.198;20.908;2022-08-21T08:36:12;6.63;;;4.22;;
21162;SDS011;10739;52.198;20.908;2022-08-21T08:38:42;5.47;;;4.25;;
21162;SDS011;10739;52.198;20.908;2022-08-21T08:43:52;5.72;;;4.03;;
21162;SDS011;10739;52.198;20.908;2022-08-21T08:57:28;10.05;;;4.13;;
21162;SDS011;10739;52.198;20.908;2022-08-21T08:59:58;8.20;;;3.70;;
21162;SDS011;10739;52.198;20.908;2022-08-21T09:02:32;6.25;;;4.10;;
21162;SDS011;10739;52.198;20.908;2022-08-21T09:04:59;5.38;;;4.18;;
21162;SDS011;10739;52.198;20.908;2022-08-21T09:13:24;9.73;;;3.70;;
21162;SDS011;10739;52.198;20.908;2022-08-21T09:17:04;5.70;;;3.40;;
21162;SDS011;10739;52.198;20.908;2022-08-21T09:22:27;7.45;;;3.47;;
21162;SDS011;10739;52.198;20.908;2022-08-21T09:25:19;3.45;;;3.00;;
21162;SDS011;10739;52.198;20.908;2022-08-21T09:27:50;4.80;;;2.80;;
21162;SDS011;10739;52.198;20.908;2022-08-21T09:30:17;7.35;;;3.97;;
21162;SDS011;10739;52.198;20.908;2022-08-21T09:32:54;4.22;;;3.05;;
21162;SDS011;10739;52.198;20.908;2022-08-21T09:35:21;8.13;;;3.22;;
21162;SDS011;10739;52.198;20.908;2022-08-21T09:37:51;4.32;;;3.20;;
21162;SDS011;10739;52.198;20.908;2022-08-21T09:40:37;8.25;;;3.58;;
21162;SDS011;10739;52.198;20.908;2022-08-21T09:45:37;4.28;;;3.40;;
21162;SDS011;10739;52.198;20.908;2022-08-21T09:48:14;4.75;;;3.28;;
21162;SDS011;10739;52.198;20.908;2022-08-21T09:50:47;3.88;;;3.13;;
21162;SDS011;10739;52.198;20.908;2022-08-21T09:53:28;7.30;;;3.47;;
21162;SDS011;10739;52.198;20.908;2022-08-21T09:55:57;8.43;;;3.38;;
21162;SDS011;10739;52.198;20.908;2022-08-21T09:58:59;6.63;;;3.28;;
21162;SDS011;10739;52.198;20.908;2022-08-21T10:01:25;6.50;;;3.50;;
21162;SDS011;10739;52.198;20.908;2022-08-21T10:04:05;4.72;;;3.20;;
21162;SDS011;10739;52.198;20.908;2022-08-21T10:06:34;4.47;;;3.10;;
21162;SDS011;10739;52.198;20.908;2022-08-21T10:09:05;4.78;;;2.72;;
21162;SDS011;10739;52.198;20.908;2022-08-21T10:11:44;4.03;;;2.95;;
21162;SDS011;10739;52.198;20.908;2022-08-21T10:20:19;7.22;;;3.20;;
21162;SDS011;10739;52.198;20.908;2022-08-21T10:35:13;3.80;;;3.38;;
21162;SDS011;10739;52.198;20.908;2022-08-21T10:37:59;3.17;;;2.83;;
21162;SDS011;10739;52.198;20.908;2022-08-21T10:41:48;3.10;;;2.83;;
21162;SDS011;10739;52.198;20.908;2022-08-21T10:46:32;2.97;;;2.67;;
21162;SDS011;10739;52.198;20.908;2022-08-21T10:55:18;5.15;;;3.35;;
21162;SDS011;10739;52.198;20.908;2022-08-21T10:58:01;6.22;;;3.20;;
21162;SDS011;10739;52.198;20.908;2022-08-21T11:00:41;11.55;;;3.60;;
21162;SDS011;10739;52.198;20.908;2022-08-21T11:03:33;4.75;;;3.10;;
21162;SDS011;10739;52.198;20.908;2022-08-21T11:06:05;5.88;;;3.50;;
21162;SDS011;10739;52.198;20.908;2022-08-21T11:08:41;9.82;;;3.47;;
21162;SDS011;10739;52.198;20.908;2022-08-21T11:13:54;5.50;;;3.13;;
21162;SDS011;10739;52.198;20.908;2022-08-21T11:16:35;3.95;;;3.20;;
21162;SDS011;10739;52.198;20.908;2022-08-21T11:24:38;7.68;;;3.15;;
21162;SDS011;10739;52.198;20.908;2022-08-21T11:27:56;5.38;;;3.20;;
21162;SDS011;10739;52.198;20.908;2022-08-21T11:37:02;3.60;;;2.95;;
21162;SDS011;10739;52.198;20.908;2022-08-21T11:39:58;4.05;;;2.70;;
21162;SDS011;10739;52.198;20.908;2022-08-21T11:47:54;3.60;;;2.80;;
21162;SDS011;10739;52.198;20.908;2022-08-21T11:50:50;6.97;;;3.13;;
21162;SDS011;10739;52.198;20.908;2022-08-21T11:53:29;8.02;;;3.17;;
21162;SDS011;10739;52.198;20.908;2022-08-21T11:56:12;6.28;;;3.15;;
21162;SDS011;10739;52.198;20.908;2022-08-21T11:58:56;5.18;;;2.60;;
21162;SDS011;10739;52.198;20.908;2022-08-21T12:01:35;3.95;;;3.00;;
21162;SDS011;10739;52.198;20.908;2022-08-21T12:04:31;5.15;;;2.88;;
21162;SDS011;10739;52.198;20.908;2022-08-21T12:07:12;4.13;;;2.85;;
21162;SDS011;10739;52.198;20.908;2022-08-21T12:10:00;6.80;;;2.88;;
21162;SDS011;10739;52.198;20.908;2022-08-21T12:12:37;3.30;;;2.78;;
21162;SDS011;10739;52.198;20.908;2022-08-21T12:18:03;3.10;;;2.80;;
21162;SDS011;10739;52.198;20.908;2022-08-21T12:20:45;5.18;;;3.03;;
21162;SDS011;10739;52.198;20.908;2022-08-21T12:29:27;4.70;;;2.42;;
21162;SDS011;10739;52.198;20.908;2022-08-21T12:32:02;6.30;;;2.95;;
21162;SDS011;10739;52.198;20.908;2022-08-21T12:34:53;4.40;;;2.80;;
21162;SDS011;10739;52.198;20.908;2022-08-21T12:40:52;6.72;;;3.08;;
21162;SDS011;10739;52.198;20.908;2022-08-21T12:43:04;6.47;;;2.40;;
21162;SDS011;10739;52.198;20.908;2022-08-21T12:45:41;5.70;;;2.65;;
21162;SDS011;10739;52.198;20.908;2022-08-21T12:52:09;4.00;;;2.67;;
21162;SDS011;10739;52.198;20.908;2022-08-21T12:54:28;3.88;;;2.53;;
21162;SDS011;10739;52.198;20.908;2022-08-21T12:57:03;2.65;;;2.45;;
21162;SDS011;10739;52.198;20.908;2022-08-21T12:59:31;5.03;;;2.70;;
21162;SDS011;10739;52.198;20.908;2022-08-21T13:02:03;5.95;;;2.60;;
21162;SDS011;10739;52.198;20.908;2022-08-21T13:04:42;3.30;;;2.50;;
21162;SDS011;10739;52.198;20.908;2022-08-21T13:07:11;4.43;;;2.60;;
21162;SDS011;10739;52.198;20.908;2022-08-21T13:09:48;3.08;;;2.30;;
21162;SDS011;10739;52.198;20.908;2022-08-21T13:12:30;2.72;;;2.35;;
21162;SDS011;10739;52.198;20.908;2022-08-21T13:15:00;3.92;;;2.33;;
21162;SDS011;10739;52.198;20.908;2022-08-21T13:17:31;3.77;;;2.40;;
21162;SDS011;10739;52.198;20.908;2022-08-21T13:20:05;3.25;;;2.45;;
21162;SDS011;10739;52.198;20.908;2022-08-21T13:22:47;2.17;;;2.00;;
21162;SDS011;10739;52.198;20.908;2022-08-21T13:25:15;3.38;;;2.38;;
21162;SDS011;10739;52.198;20.908;2022-08-21T13:27:56;3.65;;;2.50;;
21162;SDS011;10739;52.198;20.908;2022-08-21T13:30:34;3.75;;;2.28;;
21162;SDS011;10739;52.198;20.908;2022-08-21T13:33:05;5.15;;;2.70;;
21162;SDS011;10739;52.198;20.908;2022-08-21T13:35:44;4.40;;;2.60;;
21162;SDS011;10739;52.198;20.908;2022-08-21T13:38:30;3.00;;;2.80;;
21162;SDS011;10739;52.198;20.908;2022-08-21T13:43:37;3.88;;;2.60;;
21162;SDS011;10739;52.198;20.908;2022-08-21T13:46:11;2.90;;;2.67;;
21162;SDS011;10739;52.198;20.908;2022-08-21T13:48:40;5.15;;;2.92;;
21162;SDS011;10739;52.198;20.908;2022-08-21T13:51:08;3.55;;;2.92;;
21162;SDS011;10739;52.198;20.908;2022-08-21T13:53:36;7.53;;;2.90;;
21162;SDS011;10739;52.198;20.908;2022-08-21T13:59:06;5.57;;;2.95;;
21162;SDS011;10739;52.198;20.908;2022-08-21T14:01:34;6.85;;;3.60;;
21162;SDS011;10739;52.198;20.908;2022-08-21T14:04:24;9.65;;;3.10;;
21162;SDS011;10739;52.198;20.908;2022-08-21T14:07:02;4.60;;;2.50;;
21162;SDS011;10739;52.198;20.908;2022-08-21T14:12:55;7.07;;;2.90;;
21162;SDS011;10739;52.198;20.908;2022-08-21T14:15:08;8.70;;;3.45;;
21162;SDS011;10739;52.198;20.908;2022-08-21T14:17:40;5.15;;;2.65;;
21162;SDS011;10739;52.198;20.908;2022-08-21T14:20:08;2.95;;;2.65;;
21162;SDS011;10739;52.198;20.908;2022-08-21T14:22:51;3.85;;;2.80;;
21162;SDS011;10739;52.198;20.908;2022-08-21T14:30:53;2.50;;;2.30;;
21162;SDS011;10739;52.198;20.908;2022-08-21T14:33:23;5.65;;;2.63;;
21162;SDS011;10739;52.198;20.908;2022-08-21T14:35:56;3.13;;;2.70;;
21162;SDS011;10739;52.198;20.908;2022-08-21T14:38:24;2.80;;;2.50;;
21162;SDS011;10739;52.198;20.908;2022-08-21T14:40:56;3.80;;;2.30;;
21162;SDS011;10739;52.198;20.908;2022-08-21T14:43:29;5.05;;;2.20;;
21162;SDS011;10739;52.198;20.908;2022-08-21T14:45:56;2.60;;;2.40;;
21162;SDS011;10739;52.198;20.908;2022-08-21T14:48:23;7.40;;;2.60;;
21162;SDS011;10739;52.198;20.908;2022-08-21T14:50:49;2.85;;;2.40;;
21162;SDS011;10739;52.198;20.908;2022-08-21T14:53:16;5.40;;;2.72;;
21162;SDS011;10739;52.198;20.908;2022-08-21T14:55:42;6.47;;;2.80;;
21162;SDS011;10739;52.198;20.908;2022-08-21T14:58:28;5.97;;;3.00;;
21162;SDS011;10739;52.198;20.908;2022-08-21T15:00:54;3.50;;;2.42;;
21162;SDS011;10739;52.198;20.908;2022-08-21T15:03:23;5.88;;;2.67;;
21162;SDS011;10739;52.198;20.908;2022-08-21T15:05:51;5.65;;;3.03;;
21162;SDS011;10739;52.198;20.908;2022-08-21T15:08:17;3.80;;;2.67;;
21162;SDS011;10739;52.198;20.908;2022-08-21T15:10:44;5.85;;;2.80;;
21162;SDS011;10739;52.198;20.908;2022-08-21T15:13:11;9.30;;;2.72;;
21162;SDS011;10739;52.198;20.908;2022-08-21T15:15:39;6.45;;;3.10;;
21162;SDS011;10739;52.198;20.908;2022-08-21T15:18:11;3.42;;;2.70;;
21162;SDS011;10739;52.198;20.908;2022-08-21T15:20:37;8.02;;;2.78;;
21162;SDS011;10739;52.198;20.908;2022-08-21T15:23:04;4.03;;;3.15;;
21162;SDS011;10739;52.198;20.908;2022-08-21T15:25:33;3.00;;;2.50;;
21162;SDS011;10739;52.198;20.908;2022-08-21T15:28:01;3.22;;;2.40;;
21162;SDS011;10739;52.198;20.908;2022-08-21T15:30:28;4.15;;;2.67;;
21162;SDS011;10739;52.198;20.908;2022-08-21T15:32:56;4.20;;;2.50;;
21162;SDS011;10739;52.198;20.908;2022-08-21T15:35:23;6.13;;;2.75;;
21162;SDS011;10739;52.198;20.908;2022-08-21T15:37:49;4.80;;;2.58;;
21162;SDS011;10739;52.198;20.908;2022-08-21T15:40:15;5.28;;;2.60;;
21162;SDS011;10739;52.198;20.908;2022-08-21T15:42:42;3.88;;;2.63;;
21162;SDS011;10739;52.198;20.908;2022-08-21T15:45:10;3.85;;;2.28;;
21162;SDS011;10739;52.198;20.908;2022-08-21T15:47:38;5.45;;;2.47;;
21162;SDS011;10739;52.198;20.908;2022-08-21T15:50:11;2.85;;;2.65;;
21162;SDS011;10739;52.198;20.908;2022-08-21T15:52:38;6.05;;;2.97;;
21162;SDS011;10739;52.198;20.908;2022-08-21T15:55:05;5.30;;;2.75;;
21162;SDS011;10739;52.198;20.908;2022-08-21T15:57:33;4.55;;;2.60;;
21162;SDS011;10739;52.198;20.908;2022-08-21T16:00:05;4.35;;;2.53;;
21162;SDS011;10739;52.198;20.908;2022-08-21T16:02:42;2.47;;;2.28;;
21162;SDS011;10739;52.198;20.908;2022-08-21T16:05:12;5.03;;;2.63;;
21162;SDS011;10739;52.198;20.908;2022-08-21T16:07:41;4.47;;;2.60;;
21162;SDS011;10739;52.198;20.908;2022-08-21T16:10:10;7.85;;;2.55;;
21162;SDS011;10739;52.198;20.908;2022-08-21T16:12:41;6.18;;;2.40;;
21162;SDS011;10739;52.198;20.908;2022-08-21T16:15:13;4.18;;;2.75;;
21162;SDS011;10739;52.198;20.908;2022-08-21T16:17:42;4.05;;;3.10;;
21162;SDS011;10739;52.198;20.908;2022-08-21T16:20:17;5.00;;;2.95;;
21162;SDS011;10739;52.198;20.908;2022-08-21T16:22:50;9.50;;;3.08;;
21162;SDS011;10739;52.198;20.908;2022-08-21T16:25:19;4.35;;;3.17;;
21162;SDS011;10739;52.198;20.908;2022-08-21T16:27:46;4.28;;;3.72;;
21162;SDS011;10739;52.198;20.908;2022-08-21T16:30:18;10.27;;;3.42;;
21162;SDS011;10739;52.198;20.908;2022-08-21T16:32:46;3.97;;;3.58;;
21162;SDS011;10739;52.198;20.908;2022-08-21T16:35:14;7.20;;;3.40;;
21162;SDS011;10739;52.198;20.908;2022-08-21T16:37:45;6.50;;;3.72;;
21162;SDS011;10739;52.198;20.908;2022-08-21T16:40:12;7.22;;;3.65;;